Time;durP1;ratioP1;P1;durP2;ratioP2;P2;SDS_P1;SDS_P2;PMS_P1;PMS_P2;Temp;Humidity;BMP_temperature;BMP_pressure;BME280_temperature;BME280_humidity;BME280_pressure;Samples;Min_cycle;Max_cycle;Signal;HPM_P1;HPM_P2
2022/09/18 00:01:23;;;;;;;;;;;;;;;;;;5057198;28;20130;-75
2022/09/18 00:03:50;;;;;;;;;;;;;;;;;;5054139;28;19925;-76
2022/09/18 00:06:17;;;;;;;;;;;;;;;;;;5054243;28;19929;-75
2022/09/18 00:08:45;;;;;;;;;;;;;;;;;;5053856;28;19947;-75
2022/09/18 00:11:12;;;;;;;;;;;;;;;;;;5054252;28;19924;-76
2022/09/18 00:13:40;;;;;;;;;;;;;;;;;;5053816;28;19925;-74
2022/09/18 00:16:07;;;;;;;;;;;;;;;;;;5054031;28;19925;-76
2022/09/18 00:18:34;;;;;;;;;;;;;;;;;;5053769;28;20015;-75
2022/09/18 00:21:03;;;;;;;;;;;;;;;;;;5053501;28;19925;-74
2022/09/18 00:23:29;;;;;;;;;;;;;;;;;;5054005;28;19925;-75
2022/09/18 00:25:57;;;;;;;;;;;;;;;;;;5053791;28;19928;-74
2022/09/18 00:28:24;;;;;;;;;;;;;;;;;;5053561;28;20035;-75
2022/09/18 00:30:50;;;;;;;;;;;;;;;;;;5053775;28;20015;-75
2022/09/18 00:33:17;;;;;;;;;;;;;;;;;;5053790;28;19925;-75
2022/09/18 00:35:44;;;;;;;;;;;;;;;;;;5053733;28;19980;-74
2022/09/18 00:38:11;;;;;;;;;;;;;;;;;;5053839;28;19929;-76
2022/09/18 00:40:37;;;;;;;;;;;;;;;;;;5055142;28;19931;-75
2022/09/18 00:43:17;;;;;;;;;;;;;;;;;;5055623;28;19925;-76
2022/09/18 00:45:44;;;;;;;;;;;;;;;;;;5055614;28;19931;-76
2022/09/18 00:48:11;;;;;;;;;;;;;;;;;;5055684;28;19925;-76
2022/09/18 00:50:37;;;;;;;;;;;;;;;;;;5055052;28;19931;-74
2022/09/18 00:53:05;;;;;;;;;;;;;;;;;;5052830;28;20359;-75
2022/09/18 00:58:00;;;;;;;;;;;;;;;;;;5031164;28;19932;-76
2022/09/18 01:00:29;;;;;;;;;;;;;;;;;;5029365;28;19925;-77
2022/09/18 01:02:57;;;;;;;;;;;;;;;;;;5033317;28;19929;-76
2022/09/18 01:05:27;;;;;;;;;;;;;;;;;;5036800;28;19933;-76
2022/09/18 01:08:12;;;;;;;;;;;;;;;;;;5038036;28;20422;-76
2022/09/18 01:10:48;;;;;;;;;;;;;;;;;;5027538;28;19932;-77
2022/09/18 01:13:19;;;;;;;;;;;;;;;;;;5027697;28;20431;-76
2022/09/18 01:15:51;;;;;;;;;;;;;;;;;;5035906;28;19925;-77
2022/09/18 01:18:21;;;;;;;;;;;;;;;;;;5038030;28;20427;-77
2022/09/18 01:20:57;;;;;;;;;;;;;;;;;;5036622;28;19932;-77
2022/09/18 01:23:43;;;;;;;;;;;;;;;;;;5041491;28;19925;-77
2022/09/18 01:26:17;;;;;;;;;;;;;;;;;;5034525;28;19979;-76
2022/09/18 01:28:48;;;;;;;;;;;;;;;;;;5035010;28;19932;-76
2022/09/18 01:31:17;;;;;;;;;;;;;;;;;;5026725;28;20017;-76
2022/09/18 01:34:00;;;;;;;;;;;;;;;;;;5032394;28;19936;-77
2022/09/18 01:36:28;;;;;;;;;;;;;;;;;;5025460;28;19968;-77
2022/09/18 01:38:57;;;;;;;;;;;;;;;;;;5034551;28;19929;-78
2022/09/18 01:41:25;;;;;;;;;;;;;;;;;;5034065;28;19968;-76
2022/09/18 01:43:53;;;;;;;;;;;;;;;;;;5034645;28;19929;-77
2022/09/18 01:46:21;;;;;;;;;;;;;;;;;;5035000;28;20461;-78
2022/09/18 01:48:50;;;;;;;;;;;;;;;;;;5034653;28;19930;-77
2022/09/18 01:51:19;;;;;;;;;;;;;;;;;;5033893;28;19957;-77
2022/09/18 01:53:46;;;;;;;;;;;;;;;;;;5034106;28;19931;-76
2022/09/18 01:56:16;;;;;;;;;;;;;;;;;;5032702;28;19948;-76
2022/09/18 01:58:43;;;;;;;;;;;;;;;;;;5033258;28;19929;-76
2022/09/18 02:01:14;;;;;;;;;;;;;;;;;;5032421;28;19925;-77
2022/09/18 02:03:44;;;;;;;;;;;;;;;;;;5033358;28;20461;-76
2022/09/18 02:06:13;;;;;;;;;;;;;;;;;;5034367;28;19925;-76
2022/09/18 02:08:42;;;;;;;;;;;;;;;;;;5033490;28;19925;-76
2022/09/18 02:11:09;;;;;;;;;;;;;;;;;;5033503;28;20011;-76
2022/09/18 02:13:38;;;;;;;;;;;;;;;;;;5033671;28;20328;-77
2022/09/18 02:16:08;;;;;;;;;;;;;;;;;;5041373;28;19932;-76
2022/09/18 02:18:39;;;;;;;;;;;;;;;;;;5033934;28;19929;-76
2022/09/18 02:21:07;;;;;;;;;;;;;;;;;;5031544;28;19929;-76
2022/09/18 02:23:34;;;;;;;;;;;;;;;;;;5034868;28;19931;-77
2022/09/18 02:26:03;;;;;;;;;;;;;;;;;;5030528;28;19933;-76
2022/09/18 02:28:30;;;;;;;;;;;;;;;;;;5033794;28;20404;-77
2022/09/18 02:31:00;;;;;;;;;;;;;;;;;;5033499;28;19932;-76
2022/09/18 02:33:28;;;;;;;;;;;;;;;;;;5033719;28;19925;-76
2022/09/18 02:36:09;;;;;;;;;;;;;;;;;;5033610;28;19925;-76
2022/09/18 02:38:38;;;;;;;;;;;;;;;;;;5033461;28;19925;-77
2022/09/18 02:41:07;;;;;;;;;;;;;;;;;;5032102;28;19936;-76
2022/09/18 02:43:40;;;;;;;;;;;;;;;;;;5031709;28;19932;-77
2022/09/18 02:46:12;;;;;;;;;;;;;;;;;;5037644;28;20352;-77
2022/09/18 02:48:46;;;;;;;;;;;;;;;;;;5037597;28;20288;-77
2022/09/18 02:51:20;;;;;;;;;;;;;;;;;;5028985;28;19925;-77
2022/09/18 02:53:51;;;;;;;;;;;;;;;;;;5038381;28;19932;-75
2022/09/18 02:56:21;;;;;;;;;;;;;;;;;;5037653;28;19933;-76
2022/09/18 02:58:50;;;;;;;;;;;;;;;;;;5037126;28;19932;-76
2022/09/18 03:01:16;;;;;;;;;;;;;;;;;;5036002;28;19929;-76
2022/09/18 03:03:43;;;;;;;;;;;;;;;;;;5017053;28;19932;-77
2022/09/18 03:06:09;;;;;;;;;;;;;;;;;;5017549;28;19972;-75
2022/09/18 03:08:37;;;;;;;;;;;;;;;;;;5023548;28;19937;-76
2022/09/18 03:11:04;;;;;;;;;;;;;;;;;;5037348;28;19932;-76
2022/09/18 03:13:30;;;;;;;;;;;;;;;;;;5036216;28;19925;-77
2022/09/18 03:15:57;;;;;;;;;;;;;;;;;;5036098;28;19925;-76
2022/09/18 03:18:24;;;;;;;;;;;;;;;;;;5036089;28;20003;-77
2022/09/18 03:20:50;;;;;;;;;;;;;;;;;;5036049;28;19925;-76
2022/09/18 03:23:17;;;;;;;;;;;;;;;;;;5037165;28;19983;-75
2022/09/18 03:25:45;;;;;;;;;;;;;;;;;;5036744;28;19925;-76
2022/09/18 03:28:12;;;;;;;;;;;;;;;;;;5035873;28;19929;-76
2022/09/18 03:30:39;;;;;;;;;;;;;;;;;;5034475;28;20011;-76
2022/09/18 03:33:05;;;;;;;;;;;;;;;;;;5034845;28;19945;-76
2022/09/18 03:35:32;;;;;;;;;;;;;;;;;;5034765;28;19932;-76
2022/09/18 03:37:58;;;;;;;;;;;;;;;;;;5035007;28;19925;-76
2022/09/18 03:40:25;;;;;;;;;;;;;;;;;;5034737;28;19931;-76
2022/09/18 03:42:52;;;;;;;;;;;;;;;;;;5034527;28;19932;-76
2022/09/18 03:45:19;;;;;;;;;;;;;;;;;;5034592;28;19999;-76
2022/09/18 03:47:45;;;;;;;;;;;;;;;;;;5040393;28;19958;-77
2022/09/18 03:50:12;;;;;;;;;;;;;;;;;;5046273;28;19932;-76
2022/09/18 03:52:39;;;;;;;;;;;;;;;;;;5045191;28;19956;-76
2022/09/18 03:55:06;;;;;;;;;;;;;;;;;;5033504;28;20311;-76
2022/09/18 03:57:32;;;;;;;;;;;;;;;;;;5034597;28;19959;-76
2022/09/18 04:00:00;;;;;;;;;;;;;;;;;;5033830;28;20372;-76
2022/09/18 04:02:26;;;;;;;;;;;;;;;;;;5023294;28;19926;-76
2022/09/18 04:04:53;;;;;;;;;;;;;;;;;;5014364;28;20000;-76
2022/09/18 04:07:20;;;;;;;;;;;;;;;;;;5014467;28;20351;-76
2022/09/18 04:09:46;;;;;;;;;;;;;;;;;;5014812;28;20377;-75
2022/09/18 04:12:12;;;;;;;;;;;;;;;;;;5014144;28;19926;-76
2022/09/18 04:14:39;;;;;;;;;;;;;;;;;;5014084;28;19932;-76
2022/09/18 04:17:07;;;;;;;;;;;;;;;;;;5013881;28;19929;-76
2022/09/18 04:19:33;;;;;;;;;;;;;;;;;;5013805;28;19925;-76
2022/09/18 04:21:59;;;;;;;;;;;;;;;;;;5013839;28;20312;-76
2022/09/18 04:24:26;;;;;;;;;;;;;;;;;;5013955;28;19930;-75
2022/09/18 04:26:52;;;;;;;;;;;;;;;;;;5013752;28;19925;-75
2022/09/18 04:29:19;;;;;;;;;;;;;;;;;;5013900;28;19936;-76
2022/09/18 04:31:45;;;;;;;;;;;;;;;;;;5013536;28;19941;-76
2022/09/18 04:34:13;;;;;;;;;;;;;;;;;;5013723;28;19926;-76
2022/09/18 04:36:40;;;;;;;;;;;;;;;;;;5013667;28;20003;-76
2022/09/18 04:39:06;;;;;;;;;;;;;;;;;;5013717;28;19926;-76
2022/09/18 04:41:32;;;;;;;;;;;;;;;;;;5013552;28;19936;-75
2022/09/18 04:43:59;;;;;;;;;;;;;;;;;;5013521;28;19930;-75
2022/09/18 04:46:25;;;;;;;;;;;;;;;;;;5026001;28;19935;-75
2022/09/18 04:48:53;;;;;;;;;;;;;;;;;;5032929;28;19925;-75
2022/09/18 04:51:20;;;;;;;;;;;;;;;;;;5032825;28;20311;-75
2022/09/18 04:53:47;;;;;;;;;;;;;;;;;;5032777;28;19925;-76
2022/09/18 04:56:13;;;;;;;;;;;;;;;;;;5032670;28;20372;-76
2022/09/18 04:58:39;;;;;;;;;;;;;;;;;;5032956;28;20031;-76
2022/09/18 05:01:06;;;;;;;;;;;;;;;;;;5032885;28;19929;-77
2022/09/18 05:03:32;;;;;;;;;;;;;;;;;;5013130;28;19936;-75
2022/09/18 05:05:59;;;;;;;;;;;;;;;;;;5012397;28;19933;-76
2022/09/18 05:08:27;;;;;;;;;;;;;;;;;;5013099;28;20017;-76
2022/09/18 05:10:54;;;;;;;;;;;;;;;;;;5012903;28;19941;-76
2022/09/18 05:13:21;;;;;;;;;;;;;;;;;;5013127;28;19925;-77
2022/09/18 05:15:47;;;;;;;;;;;;;;;;;;5013060;28;19926;-77
2022/09/18 05:18:13;;;;;;;;;;;;;;;;;;5012944;28;19930;-75
2022/09/18 05:20:40;;;;;;;;;;;;;;;;;;5012713;28;19925;-76
2022/09/18 05:23:07;;;;;;;;;;;;;;;;;;5012871;28;19925;-76
2022/09/18 05:25:34;;;;;;;;;;;;;;;;;;5012588;28;20388;-76
2022/09/18 05:28:01;;;;;;;;;;;;;;;;;;5012823;28;19948;-77
2022/09/18 05:30:28;;;;;;;;;;;;;;;;;;5012487;28;19925;-76
2022/09/18 05:32:55;;;;;;;;;;;;;;;;;;5012872;28;20012;-75
2022/09/18 05:35:22;;;;;;;;;;;;;;;;;;5012726;28;19972;-76
2022/09/18 05:37:49;;;;;;;;;;;;;;;;;;5012531;28;19933;-76
2022/09/18 05:40:15;;;;;;;;;;;;;;;;;;5012567;28;19932;-77
2022/09/18 05:42:46;;;;;;;;;;;;;;;;;;5014036;28;19932;-77
2022/09/18 05:45:13;;;;;;;;;;;;;;;;;;5012803;28;19999;-77
2022/09/18 05:47:39;;;;;;;;;;;;;;;;;;5012567;28;19926;-77
2022/09/18 05:50:06;;;;;;;;;;;;;;;;;;5012178;28;19979;-76
2022/09/18 05:52:32;;;;;;;;;;;;;;;;;;5012222;28;20414;-77
2022/09/18 05:54:59;;;;;;;;;;;;;;;;;;5012683;28;19925;-77
2022/09/18 05:57:25;;;;;;;;;;;;;;;;;;5012559;28;19931;-77
2022/09/18 05:59:53;;;;;;;;;;;;;;;;;;5012036;28;20436;-76
2022/09/18 06:02:19;;;;;;;;;;;;;;;;;;5022402;28;19932;-76
2022/09/18 06:04:46;;;;;;;;;;;;;;;;;;5032182;28;19983;-76
2022/09/18 06:07:14;;;;;;;;;;;;;;;;;;5032257;28;20355;-76
2022/09/18 06:09:41;;;;;;;;;;;;;;;;;;5031730;28;19926;-77
2022/09/18 06:12:07;;;;;;;;;;;;;;;;;;5032353;28;20023;-77
2022/09/18 06:14:34;;;;;;;;;;;;;;;;;;5032035;28;19932;-76
2022/09/18 06:17:01;;;;;;;;;;;;;;;;;;5035769;28;19932;-76
2022/09/18 06:19:28;;;;;;;;;;;;;;;;;;5035551;28;20392;-77
2022/09/18 06:21:54;;;;;;;;;;;;;;;;;;5035935;28;20411;-75
2022/09/18 06:24:20;;;;;;;;;;;;;;;;;;5035840;28;20311;-76
2022/09/18 06:26:48;;;;;;;;;;;;;;;;;;5035981;28;19925;-76
2022/09/18 06:29:14;;;;;;;;;;;;;;;;;;5035700;28;19932;-76
2022/09/18 06:31:40;;;;;;;;;;;;;;;;;;5035761;28;19932;-76
2022/09/18 06:34:08;;;;;;;;;;;;;;;;;;5035529;28;19925;-77
2022/09/18 06:36:35;;;;;;;;;;;;;;;;;;5035586;28;19925;-76
2022/09/18 06:39:01;;;;;;;;;;;;;;;;;;5035649;28;20023;-76
2022/09/18 06:41:27;;;;;;;;;;;;;;;;;;5035612;28;19925;-76
2022/09/18 06:43:54;;;;;;;;;;;;;;;;;;5035627;28;20300;-76
2022/09/18 06:46:20;;;;;;;;;;;;;;;;;;5035739;28;19933;-77
2022/09/18 06:48:48;;;;;;;;;;;;;;;;;;5035363;28;20303;-77
2022/09/18 06:51:16;;;;;;;;;;;;;;;;;;5036324;28;19925;-77
2022/09/18 06:53:42;;;;;;;;;;;;;;;;;;5036100;28;19925;-75
2022/09/18 06:56:08;;;;;;;;;;;;;;;;;;5035887;28;19964;-76
2022/09/18 06:58:35;;;;;;;;;;;;;;;;;;5052687;22;19932;-75
2022/09/18 07:01:01;;;;;;;;;;;;;;;;;;5035192;28;19941;-76
2022/09/18 07:03:28;;;;;;;;;;;;;;;;;;5035132;28;19929;-77
2022/09/18 07:05:54;;;;;;;;;;;;;;;;;;5035536;28;19947;-76
2022/09/18 07:08:22;;;;;;;;;;;;;;;;;;5021335;28;19968;-76
2022/09/18 07:10:48;;;;;;;;;;;;;;;;;;5015000;28;19926;-77
2022/09/18 07:13:15;;;;;;;;;;;;;;;;;;5015657;28;19933;-76
2022/09/18 07:15:41;;;;;;;;;;;;;;;;;;5015086;28;19952;-76
2022/09/18 07:18:08;;;;;;;;;;;;;;;;;;5021099;28;19997;-76
2022/09/18 07:20:34;;;;;;;;;;;;;;;;;;5018806;28;19926;-76
2022/09/18 07:23:01;;;;;;;;;;;;;;;;;;5015266;28;19936;-79
2022/09/18 07:25:30;;;;;;;;;;;;;;;;;;5015238;28;19932;-76
2022/09/18 07:28:01;;;;;;;;;;;;;;;;;;5014201;28;19925;-76
2022/09/18 07:30:27;;;;;;;;;;;;;;;;;;5014816;28;20354;-76
2022/09/18 07:32:54;;;;;;;;;;;;;;;;;;5014784;28;20360;-76
2022/09/18 07:35:20;;;;;;;;;;;;;;;;;;5014906;28;20035;-76
2022/09/18 07:37:47;;;;;;;;;;;;;;;;;;5014851;28;19925;-76
2022/09/18 07:40:13;;;;;;;;;;;;;;;;;;5014517;28;19926;-76
2022/09/18 07:42:41;;;;;;;;;;;;;;;;;;5014559;28;19936;-76
2022/09/18 07:45:07;;;;;;;;;;;;;;;;;;5014528;28;19929;-76
2022/09/18 07:47:34;;;;;;;;;;;;;;;;;;5014311;28;20380;-75
2022/09/18 07:50:00;;;;;;;;;;;;;;;;;;5014317;28;19932;-76
2022/09/18 07:52:27;;;;;;;;;;;;;;;;;;5014587;28;19932;-73
2022/09/18 07:54:53;;;;;;;;;;;;;;;;;;5014748;28;19979;-74
2022/09/18 07:57:19;;;;;;;;;;;;;;;;;;5014590;28;19926;-74
2022/09/18 07:59:47;;;;;;;;;;;;;;;;;;5014519;28;19932;-75
2022/09/18 08:02:13;;;;;;;;;;;;;;;;;;5015198;28;19932;-75
2022/09/18 08:04:40;;;;;;;;;;;;;;;;;;5015258;28;19925;-75
2022/09/18 08:07:06;;;;;;;;;;;;;;;;;;5014707;28;20400;-75
2022/09/18 08:09:33;;;;;;;;;;;;;;;;;;5014179;28;19930;-75
2022/09/18 08:11:59;;;;;;;;;;;;;;;;;;5014688;28;19926;-75
2022/09/18 08:14:26;;;;;;;;;;;;;;;;;;5014707;28;19932;-75
2022/09/18 08:16:54;;;;;;;;;;;;;;;;;;5014518;28;19929;-75
2022/09/18 08:19:20;;;;;;;;;;;;;;;;;;5014613;28;19933;-74
2022/09/18 08:21:47;;;;;;;;;;;;;;;;;;5014363;28;19970;-75
2022/09/18 08:24:15;;;;;;;;;;;;;;;;;;5014014;28;19926;-74
2022/09/18 08:26:42;;;;;;;;;;;;;;;;;;5014793;28;20103;-74
2022/09/18 08:29:08;;;;;;;;;;;;;;;;;;5014476;28;20009;-77
2022/09/18 08:31:35;;;;;;;;;;;;;;;;;;5015036;28;19929;-77
2022/09/18 08:34:03;;;;;;;;;;;;;;;;;;5014850;28;19991;-76
2022/09/18 08:36:29;;;;;;;;;;;;;;;;;;5014560;28;20281;-75
2022/09/18 08:38:56;;;;;;;;;;;;;;;;;;5014866;28;19932;-75
2022/09/18 08:41:31;;;;;;;;;;;;;;;;;;5014738;28;19931;-73
2022/09/18 08:44:00;;;;;;;;;;;;;;;;;;5014500;28;19932;-75
2022/09/18 08:46:31;;;;;;;;;;;;;;;;;;5014552;28;19927;-75
2022/09/18 08:49:01;;;;;;;;;;;;;;;;;;5013817;28;20272;-75
2022/09/18 08:51:30;;;;;;;;;;;;;;;;;;5013747;28;19948;-75
2022/09/18 08:53:59;;;;;;;;;;;;;;;;;;5014082;28;19947;-76
2022/09/18 08:56:25;;;;;;;;;;;;;;;;;;5013554;28;19932;-75
2022/09/18 08:58:54;;;;;;;;;;;;;;;;;;5013055;28;20396;-75
2022/09/18 09:01:21;;;;;;;;;;;;;;;;;;5014024;28;19952;-75
2022/09/18 09:03:52;;;;;;;;;;;;;;;;;;5014046;28;19967;-74
2022/09/18 09:06:26;;;;;;;;;;;;;;;;;;5013663;28;19926;-76
2022/09/18 09:09:09;;;;;;;;;;;;;;;;;;5013039;28;19975;-74
2022/09/18 09:11:40;;;;;;;;;;;;;;;;;;5013246;28;19926;-75
2022/09/18 09:14:20;;;;;;;;;;;;;;;;;;5013521;28;19948;-75
2022/09/18 09:16:50;;;;;;;;;;;;;;;;;;5013008;28;19925;-76
2022/09/18 09:19:25;;;;;;;;;;;;;;;;;;5012870;28;19926;-74
2022/09/18 09:21:54;;;;;;;;;;;;;;;;;;5013160;28;20018;-75
2022/09/18 09:24:29;;;;;;;;;;;;;;;;;;5012450;28;19926;-74
2022/09/18 09:26:56;;;;;;;;;;;;;;;;;;5013000;28;19925;-74
2022/09/18 09:29:24;;;;;;;;;;;;;;;;;;5012259;28;20008;-74
2022/09/18 09:31:53;;;;;;;;;;;;;;;;;;5012869;28;19925;-74
2022/09/18 09:34:21;;;;;;;;;;;;;;;;;;5012797;28;20008;-74
2022/09/18 09:36:48;;;;;;;;;;;;;;;;;;5012376;28;20301;-74
2022/09/18 09:39:19;;;;;;;;;;;;;;;;;;5012228;28;19932;-74
2022/09/18 09:41:50;;;;;;;;;;;;;;;;;;5012326;28;19929;-75
2022/09/18 09:44:23;;;;;;;;;;;;;;;;;;5012592;28;19976;-76
2022/09/18 09:47:01;;;;;;;;;;;;;;;;;;5012616;28;19932;-74
2022/09/18 09:49:28;;;;;;;;;;;;;;;;;;5012497;28;19992;-75
2022/09/18 09:51:59;;;;;;;;;;;;;;;;;;5011777;28;20336;-75
2022/09/18 09:54:26;;;;;;;;;;;;;;;;;;5013212;28;19947;-76
2022/09/18 09:56:56;;;;;;;;;;;;;;;;;;5012205;28;19930;-75
2022/09/18 09:59:26;;;;;;;;;;;;;;;;;;5012563;28;19925;-74
2022/09/18 10:01:55;;;;;;;;;;;;;;;;;;5012641;28;20356;-74
2022/09/18 10:04:26;;;;;;;;;;;;;;;;;;5013138;28;19929;-75
2022/09/18 10:06:56;;;;;;;;;;;;;;;;;;5012716;28;19925;-74
2022/09/18 10:09:27;;;;;;;;;;;;;;;;;;5012347;28;19925;-77
2022/09/18 10:11:57;;;;;;;;;;;;;;;;;;5012838;28;19933;-76
2022/09/18 10:14:25;;;;;;;;;;;;;;;;;;5012504;28;20399;-76
2022/09/18 10:16:52;;;;;;;;;;;;;;;;;;5012342;28;19949;-76
2022/09/18 10:19:19;;;;;;;;;;;;;;;;;;5012655;28;19958;-76
2022/09/18 10:21:47;;;;;;;;;;;;;;;;;;5012236;28;19926;-75
2022/09/18 10:24:17;;;;;;;;;;;;;;;;;;5012184;28;20296;-75
2022/09/18 10:26:46;;;;;;;;;;;;;;;;;;5012556;28;19925;-75
2022/09/18 10:29:15;;;;;;;;;;;;;;;;;;5012350;28;19925;-76
2022/09/18 10:31:46;;;;;;;;;;;;;;;;;;5012196;28;19926;-75
2022/09/18 10:34:30;;;;;;;;;;;;;;;;;;5012390;28;20009;-74
2022/09/18 10:36:56;;;;;;;;;;;;;;;;;;5012118;28;19925;-76
2022/09/18 10:39:26;;;;;;;;;;;;;;;;;;5011777;28;20312;-76
2022/09/18 10:41:56;;;;;;;;;;;;;;;;;;5012382;28;20353;-75
2022/09/18 10:44:25;;;;;;;;;;;;;;;;;;5012128;28;20380;-76
2022/09/18 10:46:57;;;;;;;;;;;;;;;;;;5011740;28;19932;-75
2022/09/18 10:49:25;;;;;;;;;;;;;;;;;;5011689;28;19973;-75
2022/09/18 10:52:14;;;;;;;;;;;;;;;;;;5011886;28;20295;-74
2022/09/18 10:54:40;;;;;;;;;;;;;;;;;;5011575;28;20361;-76
2022/09/18 10:57:24;;;;;;;;;;;;;;;;;;5011518;28;19925;-76
2022/09/18 10:59:52;;;;;;;;;;;;;;;;;;5011585;28;19980;-75
2022/09/18 11:02:19;;;;;;;;;;;;;;;;;;5011796;28;20288;-76
2022/09/18 11:04:46;;;;;;;;;;;;;;;;;;5015232;28;20322;-75
2022/09/18 11:07:13;;;;;;;;;;;;;;;;;;5015337;28;19975;-76
2022/09/18 11:09:40;;;;;;;;;;;;;;;;;;5015389;28;20024;-75
2022/09/18 11:12:14;;;;;;;;;;;;;;;;;;5015431;28;19980;-77
2022/09/18 11:14:41;;;;;;;;;;;;;;;;;;5015600;28;19925;-76
2022/09/18 11:17:15;;;;;;;;;;;;;;;;;;5014945;28;19925;-74
2022/09/18 11:19:42;;;;;;;;;;;;;;;;;;5015397;28;19937;-74
2022/09/18 11:22:28;;;;;;;;;;;;;;;;;;5019828;28;19941;-76
2022/09/18 11:25:06;;;;;;;;;;;;;;;;;;5015937;28;19929;-74
2022/09/18 11:27:43;;;;;;;;;;;;;;;;;;5015961;28;19926;-74
2022/09/18 11:30:21;;;;;;;;;;;;;;;;;;5015113;28;20020;-76
2022/09/18 11:32:51;;;;;;;;;;;;;;;;;;5015468;28;19926;-75
2022/09/18 11:35:19;;;;;;;;;;;;;;;;;;5015638;28;20380;-75
2022/09/18 11:37:47;;;;;;;;;;;;;;;;;;5014784;28;19925;-75
2022/09/18 11:40:18;;;;;;;;;;;;;;;;;;5014714;28;19948;-75
2022/09/18 11:42:45;;;;;;;;;;;;;;;;;;5015134;28;19925;-74
2022/09/18 11:45:18;;;;;;;;;;;;;;;;;;5014866;28;19926;-75
2022/09/18 11:47:45;;;;;;;;;;;;;;;;;;5014392;28;20407;-75
2022/09/18 11:50:15;;;;;;;;;;;;;;;;;;5014582;28;19925;-75
2022/09/18 11:52:43;;;;;;;;;;;;;;;;;;5014579;28;20019;-75
2022/09/18 11:55:14;;;;;;;;;;;;;;;;;;5014617;28;19926;-76
2022/09/18 11:57:43;;;;;;;;;;;;;;;;;;5014198;28;20410;-78
2022/09/18 12:00:13;;;;;;;;;;;;;;;;;;5014476;28;19925;-75
2022/09/18 12:02:44;;;;;;;;;;;;;;;;;;5014301;28;20020;-76
2022/09/18 12:05:18;;;;;;;;;;;;;;;;;;5014723;28;19932;-75
2022/09/18 12:07:51;;;;;;;;;;;;;;;;;;5014307;28;19925;-75
2022/09/18 12:10:21;;;;;;;;;;;;;;;;;;5013990;28;20392;-75
2022/09/18 12:12:50;;;;;;;;;;;;;;;;;;5014455;28;20016;-77
2022/09/18 12:15:18;;;;;;;;;;;;;;;;;;5014097;28;19929;-75
2022/09/18 12:17:47;;;;;;;;;;;;;;;;;;5014292;28;19926;-75
2022/09/18 12:20:18;;;;;;;;;;;;;;;;;;5014037;28;19926;-75
2022/09/18 12:22:48;;;;;;;;;;;;;;;;;;5014163;28;19965;-74
2022/09/18 12:25:15;;;;;;;;;;;;;;;;;;5014174;28;19925;-75
2022/09/18 12:27:45;;;;;;;;;;;;;;;;;;5014838;28;20412;-78
2022/09/18 12:30:12;;;;;;;;;;;;;;;;;;5014386;28;19925;-79
2022/09/18 12:32:49;;;;;;;;;;;;;;;;;;5015192;28;19972;-77
2022/09/18 12:35:20;;;;;;;;;;;;;;;;;;5014647;28;20394;-77
2022/09/18 12:37:53;;;;;;;;;;;;;;;;;;5014612;28;19930;-76
2022/09/18 12:40:26;;;;;;;;;;;;;;;;;;5015111;28;20376;-76
2022/09/18 12:43:00;;;;;;;;;;;;;;;;;;5015689;28;19932;-76
2022/09/18 12:45:47;;;;;;;;;;;;;;;;;;5015981;28;20288;-77
2022/09/18 12:48:21;;;;;;;;;;;;;;;;;;5014993;28;19932;-76
2022/09/18 12:51:04;;;;;;;;;;;;;;;;;;5015124;28;19926;-78
2022/09/18 12:53:40;;;;;;;;;;;;;;;;;;5014702;28;19929;-74
2022/09/18 12:56:14;;;;;;;;;;;;;;;;;;5014756;28;20407;-77
2022/09/18 12:58:52;;;;;;;;;;;;;;;;;;5041612;22;19932;-77
2022/09/18 13:01:24;;;;;;;;;;;;;;;;;;5044993;28;19929;-77
2022/09/18 13:03:52;;;;;;;;;;;;;;;;;;5052021;28;20007;-76
2022/09/18 13:06:24;;;;;;;;;;;;;;;;;;5056331;28;20441;-77
2022/09/18 13:08:55;;;;;;;;;;;;;;;;;;5053685;28;19925;-77
2022/09/18 13:11:25;;;;;;;;;;;;;;;;;;5058719;28;20310;-77
2022/09/18 13:13:53;;;;;;;;;;;;;;;;;;5077664;28;19915;-75
2022/09/18 13:16:31;;;;;;;;;;;;;;;;;;5077033;28;19988;-77
2022/09/18 13:19:02;;;;;;;;;;;;;;;;;;5074478;28;20015;-77
2022/09/18 13:21:32;;;;;;;;;;;;;;;;;;5073441;28;19948;-77
2022/09/18 13:24:00;;;;;;;;;;;;;;;;;;5068095;28;19925;-77
2022/09/18 13:26:30;;;;;;;;;;;;;;;;;;5057774;28;19931;-77
2022/09/18 13:28:58;;;;;;;;;;;;;;;;;;5043982;28;19925;-76
2022/09/18 13:31:28;;;;;;;;;;;;;;;;;;5034397;28;20003;-77
2022/09/18 13:33:55;;;;;;;;;;;;;;;;;;5033666;28;19925;-77
2022/09/18 13:36:23;;;;;;;;;;;;;;;;;;5038735;28;20003;-78
2022/09/18 13:38:50;;;;;;;;;;;;;;;;;;5044278;28;20303;-76
2022/09/18 13:41:18;;;;;;;;;;;;;;;;;;5041434;28;19925;-77
2022/09/18 13:43:50;;;;;;;;;;;;;;;;;;5043627;28;19931;-79
2022/09/18 13:46:35;;;;;;;;;;;;;;;;;;5035289;28;20385;-77
2022/09/18 13:49:12;;;;;;;;;;;;;;;;;;5051496;28;19979;-77
2022/09/18 13:51:39;;;;;;;;;;;;;;;;;;5041034;28;19929;-77
2022/09/18 13:54:15;;;;;;;;;;;;;;;;;;5057145;28;19925;-76
2022/09/18 13:57:00;;;;;;;;;;;;;;;;;;5059340;28;20373;-77
2022/09/18 13:59:44;;;;;;;;;;;;;;;;;;5054532;28;19924;-77
2022/09/18 14:02:22;;;;;;;;;;;;;;;;;;5051850;28;19940;-78
2022/09/18 14:05:06;;;;;;;;;;;;;;;;;;5043537;28;19926;-78
2022/09/18 14:07:53;;;;;;;;;;;;;;;;;;5035865;28;20103;-76
2022/09/18 14:10:22;;;;;;;;;;;;;;;;;;5037979;28;20388;-76
2022/09/18 14:13:03;;;;;;;;;;;;;;;;;;5038525;28;19926;-77
2022/09/18 14:15:32;;;;;;;;;;;;;;;;;;5040173;28;19925;-77
2022/09/18 14:18:05;;;;;;;;;;;;;;;;;;5038830;28;19926;-79
2022/09/18 14:20:32;;;;;;;;;;;;;;;;;;5048063;28;19929;-79
2022/09/18 14:23:13;;;;;;;;;;;;;;;;;;5044410;28;20028;-78
2022/09/18 14:25:48;;;;;;;;;;;;;;;;;;5032428;28;19988;-77
2022/09/18 14:28:16;;;;;;;;;;;;;;;;;;5045204;28;19932;-79
2022/09/18 14:30:44;;;;;;;;;;;;;;;;;;5046951;28;20383;-77
2022/09/18 14:33:18;;;;;;;;;;;;;;;;;;5046085;28;19929;-79
2022/09/18 14:35:47;;;;;;;;;;;;;;;;;;5054887;28;19972;-79
2022/09/18 14:38:24;;;;;;;;;;;;;;;;;;5043600;28;20012;-78
2022/09/18 14:40:53;;;;;;;;;;;;;;;;;;5049033;28;19929;-76
2022/09/18 14:43:21;;;;;;;;;;;;;;;;;;5050248;28;20296;-76
2022/09/18 14:45:49;;;;;;;;;;;;;;;;;;5054190;28;19925;-77
2022/09/18 14:48:19;;;;;;;;;;;;;;;;;;5050351;28;19925;-77
2022/09/18 14:50:57;;;;;;;;;;;;;;;;;;5049569;28;19924;-77
2022/09/18 14:53:24;;;;;;;;;;;;;;;;;;5034887;28;20372;-77
2022/09/18 14:55:54;;;;;;;;;;;;;;;;;;5039349;28;19929;-75
2022/09/18 14:58:21;;;;;;;;;;;;;;;;;;5040679;28;19925;-77
2022/09/18 15:00:53;;;;;;;;;;;;;;;;;;5047585;28;19924;-77
2022/09/18 15:03:20;;;;;;;;;;;;;;;;;;5045018;28;19987;-76
2022/09/18 15:05:48;;;;;;;;;;;;;;;;;;5046507;28;19925;-76
2022/09/18 15:08:16;;;;;;;;;;;;;;;;;;5046040;28;19985;-76
2022/09/18 15:10:44;;;;;;;;;;;;;;;;;;5038731;28;19925;-78
2022/09/18 15:13:12;;;;;;;;;;;;;;;;;;5037477;28;19964;-78
2022/09/18 15:15:39;;;;;;;;;;;;;;;;;;5036786;28;20000;-78
2022/09/18 15:18:16;;;;;;;;;;;;;;;;;;5055201;28;19924;-79
2022/09/18 15:20:46;;;;;;;;;;;;;;;;;;5061753;28;19925;-79
2022/09/18 15:23:20;;;;;;;;;;;;;;;;;;5062818;28;19924;-77
2022/09/18 15:25:48;;;;;;;;;;;;;;;;;;5049517;28;19935;-78
2022/09/18 15:28:19;;;;;;;;;;;;;;;;;;5025681;28;19925;-78
2022/09/18 15:30:46;;;;;;;;;;;;;;;;;;5051139;28;20011;-78
2022/09/18 15:33:18;;;;;;;;;;;;;;;;;;5048184;28;20418;-78
2022/09/18 15:35:46;;;;;;;;;;;;;;;;;;5064296;28;19985;-79
2022/09/18 15:38:15;;;;;;;;;;;;;;;;;;5053694;28;20307;-76
2022/09/18 15:40:43;;;;;;;;;;;;;;;;;;5058099;28;19951;-78
2022/09/18 15:43:39;;;;;;;;;;;;;;;;;;5057253;28;19931;-77
2022/09/18 15:46:07;;;;;;;;;;;;;;;;;;5049607;28;19925;-76
2022/09/18 15:48:36;;;;;;;;;;;;;;;;;;5057845;28;19939;-77
2022/09/18 15:51:07;;;;;;;;;;;;;;;;;;5057269;28;19925;-76
2022/09/18 15:53:33;;;;;;;;;;;;;;;;;;5055135;28;20371;-77
2022/09/18 15:56:01;;;;;;;;;;;;;;;;;;5054686;28;19932;-76
2022/09/18 15:58:33;;;;;;;;;;;;;;;;;;5054296;28;19925;-76
2022/09/18 16:01:01;;;;;;;;;;;;;;;;;;5054440;28;20391;-78
2022/09/18 16:03:30;;;;;;;;;;;;;;;;;;5035702;28;19932;-76
2022/09/18 16:05:59;;;;;;;;;;;;;;;;;;5048790;28;19925;-77
2022/09/18 16:08:27;;;;;;;;;;;;;;;;;;5034429;28;20011;-77
2022/09/18 16:10:54;;;;;;;;;;;;;;;;;;5034940;28;19987;-77
2022/09/18 16:13:32;;;;;;;;;;;;;;;;;;5034562;28;20384;-77
2022/09/18 16:16:29;;;;;;;;;;;;;;;;;;5034524;28;19980;-76
2022/09/18 16:18:58;;;;;;;;;;;;;;;;;;4972698;28;19926;-77
2022/09/18 16:21:28;;;;;;;;;;;;;;;;;;5021183;28;20431;-76
2022/09/18 16:23:57;;;;;;;;;;;;;;;;;;5034480;28;19932;-77
2022/09/18 16:26:27;;;;;;;;;;;;;;;;;;5034367;28;19929;-77
2022/09/18 16:28:55;;;;;;;;;;;;;;;;;;5034577;28;19925;-77
2022/09/18 16:31:22;;;;;;;;;;;;;;;;;;5034607;28;19976;-77
2022/09/18 16:33:51;;;;;;;;;;;;;;;;;;5035086;28;19925;-77
2022/09/18 16:36:22;;;;;;;;;;;;;;;;;;5034677;28;19929;-76
2022/09/18 16:38:50;;;;;;;;;;;;;;;;;;5034288;28;19932;-76
2022/09/18 16:41:16;;;;;;;;;;;;;;;;;;5034044;28;19925;-76
2022/09/18 16:43:42;;;;;;;;;;;;;;;;;;5034630;28;19992;-76
2022/09/18 16:46:09;;;;;;;;;;;;;;;;;;5038107;28;19929;-79
2022/09/18 16:48:37;;;;;;;;;;;;;;;;;;5046657;28;19925;-77
2022/09/18 16:51:03;;;;;;;;;;;;;;;;;;5054575;28;19925;-77
2022/09/18 16:53:29;;;;;;;;;;;;;;;;;;5054078;28;19931;-77
2022/09/18 16:55:57;;;;;;;;;;;;;;;;;;5038050;28;19932;-77
2022/09/18 16:58:25;;;;;;;;;;;;;;;;;;5035635;28;19948;-77
2022/09/18 17:00:52;;;;;;;;;;;;;;;;;;5038180;28;20008;-77
2022/09/18 17:03:18;;;;;;;;;;;;;;;;;;5024237;28;19925;-77